<?xml version="1.0" encoding="UTF-8" standalone="no" ?>
<gpx xmlns="http://www.topografix.com/GPX/1/1" xmlns:xsi="http://www.w3.org/2001/XMLSchema-instance" xsi:schemaLocation="http://www.topografix.com/GPX/1/1 http://www.topografix.com/GPX/1/1/gpx.xsd" version="1.1" creator="VisuGPX - https://www.visugpx.com">
  <metadata>
    <name>Rando sentiers des meulières</name>
    <desc><![CDATA[Rando facile,intéressante, à faire... ]]></desc>
  </metadata>
  <trk>
    <name><![CDATA[Rando sentiers des meulières_1]]></name>
    <trkseg>
      <trkpt lat="45.43208" lon="0.61233">
        <ele>150.2</ele>
        <time>2022-10-29T13:50:54Z</time>
      </trkpt>
      <trkpt lat="45.43208" lon="0.61228">
        <ele>149.4</ele>
        <time>2022-10-29T13:51:00Z</time>
      </trkpt>
      <trkpt lat="45.43207" lon="0.61225">
        <ele>149.2</ele>
        <time>2022-10-29T13:51:02Z</time>
      </trkpt>
      <trkpt lat="45.43208" lon="0.61213">
        <ele>149.6</ele>
        <time>2022-10-29T13:51:10Z</time>
      </trkpt>
      <trkpt lat="45.43207" lon="0.6121">
        <ele>150.2</ele>
        <time>2022-10-29T13:51:12Z</time>
      </trkpt>
      <trkpt lat="45.43207" lon="0.61208">
        <ele>150.2</ele>
        <time>2022-10-29T13:51:13Z</time>
      </trkpt>
      <trkpt lat="45.43205" lon="0.61187">
        <ele>151</ele>
        <time>2022-10-29T13:51:27Z</time>
      </trkpt>
      <trkpt lat="45.43204" lon="0.61183">
        <ele>151.2</ele>
        <time>2022-10-29T13:51:30Z</time>
      </trkpt>
      <trkpt lat="45.43199" lon="0.6117">
        <ele>151.6</ele>
        <time>2022-10-29T13:51:39Z</time>
      </trkpt>
      <trkpt lat="45.43197" lon="0.61164">
        <ele>152</ele>
        <time>2022-10-29T13:51:44Z</time>
      </trkpt>
      <trkpt lat="45.43197" lon="0.61164">
        <ele>152</ele>
        <time>2022-10-29T13:51:46Z</time>
      </trkpt>
      <trkpt lat="45.43197" lon="0.61164">
        <ele>152.2</ele>
        <time>2022-10-29T13:51:48Z</time>
      </trkpt>
      <trkpt lat="45.43196" lon="0.61163">
        <ele>152.2</ele>
        <time>2022-10-29T13:51:49Z</time>
      </trkpt>
      <trkpt lat="45.43193" lon="0.61153">
        <ele>152.8</ele>
        <time>2022-10-29T13:51:56Z</time>
      </trkpt>
      <trkpt lat="45.43191" lon="0.61149">
        <ele>153</ele>
        <time>2022-10-29T13:52:01Z</time>
      </trkpt>
      <trkpt lat="45.43188" lon="0.61143">
        <ele>153.4</ele>
        <time>2022-10-29T13:52:06Z</time>
      </trkpt>
      <trkpt lat="45.43188" lon="0.61142">
        <ele>153.4</ele>
        <time>2022-10-29T13:52:07Z</time>
      </trkpt>
      <trkpt lat="45.43181" lon="0.61124">
        <ele>154.4</ele>
        <time>2022-10-29T13:52:19Z</time>
      </trkpt>
      <trkpt lat="45.4318" lon="0.61123">
        <ele>154.4</ele>
        <time>2022-10-29T13:52:20Z</time>
      </trkpt>
      <trkpt lat="45.4317" lon="0.61101">
        <ele>155.2</ele>
        <time>2022-10-29T13:52:38Z</time>
      </trkpt>
      <trkpt lat="45.43167" lon="0.61093">
        <ele>155.4</ele>
        <time>2022-10-29T13:52:43Z</time>
      </trkpt>
      <trkpt lat="45.43165" lon="0.61078">
        <ele>155.4</ele>
        <time>2022-10-29T13:52:51Z</time>
      </trkpt>
      <trkpt lat="45.43169" lon="0.61063">
        <ele>156.6</ele>
        <time>2022-10-29T13:53:01Z</time>
      </trkpt>
      <trkpt lat="45.4317" lon="0.61061">
        <ele>157</ele>
        <time>2022-10-29T13:53:03Z</time>
      </trkpt>
      <trkpt lat="45.43174" lon="0.61047">
        <ele>157.6</ele>
        <time>2022-10-29T13:53:14Z</time>
      </trkpt>
      <trkpt lat="45.43174" lon="0.61045">
        <ele>157.8</ele>
        <time>2022-10-29T13:53:16Z</time>
      </trkpt>
      <trkpt lat="45.43173" lon="0.61039">
        <ele>158.2</ele>
        <time>2022-10-29T13:53:20Z</time>
      </trkpt>
      <trkpt lat="45.43171" lon="0.61026">
        <ele>158.8</ele>
        <time>2022-10-29T13:53:28Z</time>
      </trkpt>
      <trkpt lat="45.43171" lon="0.61023">
        <ele>159</ele>
        <time>2022-10-29T13:53:30Z</time>
      </trkpt>
      <trkpt lat="45.43168" lon="0.61">
        <ele>159.8</ele>
        <time>2022-10-29T13:53:43Z</time>
      </trkpt>
      <trkpt lat="45.43172" lon="0.6098">
        <ele>160.4</ele>
        <time>2022-10-29T13:53:56Z</time>
      </trkpt>
      <trkpt lat="45.43171" lon="0.60954">
        <ele>160.8</ele>
        <time>2022-10-29T13:54:12Z</time>
      </trkpt>
      <trkpt lat="45.43166" lon="0.60939">
        <ele>160.8</ele>
        <time>2022-10-29T13:54:23Z</time>
      </trkpt>
      <trkpt lat="45.43162" lon="0.6093">
        <ele>160.8</ele>
        <time>2022-10-29T13:54:31Z</time>
      </trkpt>
      <trkpt lat="45.43158" lon="0.6092">
        <ele>161.6</ele>
        <time>2022-10-29T13:54:40Z</time>
      </trkpt>
      <trkpt lat="45.43155" lon="0.60915">
        <ele>162</ele>
        <time>2022-10-29T13:54:45Z</time>
      </trkpt>
      <trkpt lat="45.4315" lon="0.60906">
        <ele>162.2</ele>
        <time>2022-10-29T13:54:54Z</time>
      </trkpt>
      <trkpt lat="45.43146" lon="0.60898">
        <ele>163</ele>
        <time>2022-10-29T13:55:01Z</time>
      </trkpt>
      <trkpt lat="45.43137" lon="0.60886">
        <ele>163.8</ele>
        <time>2022-10-29T13:55:11Z</time>
      </trkpt>
      <trkpt lat="45.43135" lon="0.60884">
        <ele>164</ele>
        <time>2022-10-29T13:55:13Z</time>
      </trkpt>
      <trkpt lat="45.43129" lon="0.60872">
        <ele>164.8</ele>
        <time>2022-10-29T13:55:21Z</time>
      </trkpt>
      <trkpt lat="45.43128" lon="0.60869">
        <ele>165</ele>
        <time>2022-10-29T13:55:24Z</time>
      </trkpt>
      <trkpt lat="45.43128" lon="0.60866">
        <ele>165</ele>
        <time>2022-10-29T13:55:26Z</time>
      </trkpt>
      <trkpt lat="45.43131" lon="0.60857">
        <ele>166.2</ele>
        <time>2022-10-29T13:55:32Z</time>
      </trkpt>
      <trkpt lat="45.43131" lon="0.60856">
        <ele>166.2</ele>
        <time>2022-10-29T13:55:33Z</time>
      </trkpt>
      <trkpt lat="45.43135" lon="0.60849">
        <ele>167.2</ele>
        <time>2022-10-29T13:55:40Z</time>
      </trkpt>
      <trkpt lat="45.43142" lon="0.60843">
        <ele>168</ele>
        <time>2022-10-29T13:55:47Z</time>
      </trkpt>
      <trkpt lat="45.43145" lon="0.60841">
        <ele>168.2</ele>
        <time>2022-10-29T13:55:49Z</time>
      </trkpt>
      <trkpt lat="45.43155" lon="0.60828">
        <ele>169.4</ele>
        <time>2022-10-29T13:56:02Z</time>
      </trkpt>
      <trkpt lat="45.43157" lon="0.60827">
        <ele>169.8</ele>
        <time>2022-10-29T13:56:04Z</time>
      </trkpt>
      <trkpt lat="45.43163" lon="0.60823">
        <ele>170.4</ele>
        <time>2022-10-29T13:56:10Z</time>
      </trkpt>
      <trkpt lat="45.43173" lon="0.60819">
        <ele>171</ele>
        <time>2022-10-29T13:56:18Z</time>
      </trkpt>
      <trkpt lat="45.4318" lon="0.60817">
        <ele>171.6</ele>
        <time>2022-10-29T13:56:24Z</time>
      </trkpt>
      <trkpt lat="45.43187" lon="0.60814">
        <ele>172.4</ele>
        <time>2022-10-29T13:56:33Z</time>
      </trkpt>
      <trkpt lat="45.43199" lon="0.60812">
        <ele>172.6</ele>
        <time>2022-10-29T13:56:45Z</time>
      </trkpt>
      <trkpt lat="45.43202" lon="0.60811">
        <ele>172.8</ele>
        <time>2022-10-29T13:56:48Z</time>
      </trkpt>
      <trkpt lat="45.43214" lon="0.60806">
        <ele>173.4</ele>
        <time>2022-10-29T13:56:57Z</time>
      </trkpt>
      <trkpt lat="45.43218" lon="0.60804">
        <ele>173.4</ele>
        <time>2022-10-29T13:57:01Z</time>
      </trkpt>
      <trkpt lat="45.43224" lon="0.608">
        <ele>173.6</ele>
        <time>2022-10-29T13:57:07Z</time>
      </trkpt>
      <trkpt lat="45.43232" lon="0.60793">
        <ele>173.8</ele>
        <time>2022-10-29T13:57:14Z</time>
      </trkpt>
      <trkpt lat="45.43242" lon="0.60785">
        <ele>174.6</ele>
        <time>2022-10-29T13:57:26Z</time>
      </trkpt>
      <trkpt lat="45.4325" lon="0.60781">
        <ele>174.8</ele>
        <time>2022-10-29T13:57:37Z</time>
      </trkpt>
      <trkpt lat="45.43251" lon="0.60779">
        <ele>175</ele>
        <time>2022-10-29T13:57:39Z</time>
      </trkpt>
      <trkpt lat="45.43263" lon="0.6077">
        <ele>175.8</ele>
        <time>2022-10-29T13:57:51Z</time>
      </trkpt>
      <trkpt lat="45.43266" lon="0.60766">
        <ele>176.2</ele>
        <time>2022-10-29T13:57:54Z</time>
      </trkpt>
      <trkpt lat="45.43272" lon="0.60755">
        <ele>177</ele>
        <time>2022-10-29T13:58:04Z</time>
      </trkpt>
      <trkpt lat="45.43277" lon="0.60748">
        <ele>177.6</ele>
        <time>2022-10-29T13:58:10Z</time>
      </trkpt>
      <trkpt lat="45.43281" lon="0.60741">
        <ele>178</ele>
        <time>2022-10-29T13:58:15Z</time>
      </trkpt>
      <trkpt lat="45.43288" lon="0.60733">
        <ele>178.6</ele>
        <time>2022-10-29T13:58:24Z</time>
      </trkpt>
      <trkpt lat="45.43287" lon="0.60733">
        <ele>178.6</ele>
        <time>2022-10-29T13:58:25Z</time>
      </trkpt>
      <trkpt lat="45.43288" lon="0.6073">
        <ele>178.8</ele>
        <time>2022-10-29T13:58:28Z</time>
      </trkpt>
      <trkpt lat="45.43289" lon="0.60725">
        <ele>179</ele>
        <time>2022-10-29T13:58:34Z</time>
      </trkpt>
      <trkpt lat="45.4329" lon="0.60721">
        <ele>179.6</ele>
        <time>2022-10-29T13:58:38Z</time>
      </trkpt>
      <trkpt lat="45.43292" lon="0.60719">
        <ele>180</ele>
        <time>2022-10-29T13:58:41Z</time>
      </trkpt>
      <trkpt lat="45.43294" lon="0.60715">
        <ele>180</ele>
        <time>2022-10-29T13:58:45Z</time>
      </trkpt>
      <trkpt lat="45.43296" lon="0.60712">
        <ele>180</ele>
        <time>2022-10-29T13:58:48Z</time>
      </trkpt>
      <trkpt lat="45.43304" lon="0.60697">
        <ele>181.2</ele>
        <time>2022-10-29T13:59:00Z</time>
      </trkpt>
      <trkpt lat="45.43312" lon="0.60681">
        <ele>182</ele>
        <time>2022-10-29T13:59:15Z</time>
      </trkpt>
      <trkpt lat="45.43313" lon="0.60676">
        <ele>182.2</ele>
        <time>2022-10-29T13:59:19Z</time>
      </trkpt>
      <trkpt lat="45.43317" lon="0.60668">
        <ele>183.2</ele>
        <time>2022-10-29T13:59:26Z</time>
      </trkpt>
      <trkpt lat="45.43317" lon="0.60665">
        <ele>183.4</ele>
        <time>2022-10-29T13:59:28Z</time>
      </trkpt>
      <trkpt lat="45.43318" lon="0.60661">
        <ele>183.6</ele>
        <time>2022-10-29T13:59:31Z</time>
      </trkpt>
      <trkpt lat="45.43321" lon="0.60651">
        <ele>184.4</ele>
        <time>2022-10-29T13:59:39Z</time>
      </trkpt>
      <trkpt lat="45.43322" lon="0.60642">
        <ele>185.2</ele>
        <time>2022-10-29T13:59:46Z</time>
      </trkpt>
      <trkpt lat="45.43323" lon="0.6064">
        <ele>185.6</ele>
        <time>2022-10-29T13:59:48Z</time>
      </trkpt>
      <trkpt lat="45.43327" lon="0.60626">
        <ele>186.8</ele>
        <time>2022-10-29T14:00:00Z</time>
      </trkpt>
      <trkpt lat="45.43338" lon="0.60607">
        <ele>187.6</ele>
        <time>2022-10-29T14:00:14Z</time>
      </trkpt>
      <trkpt lat="45.43341" lon="0.60603">
        <ele>187.8</ele>
        <time>2022-10-29T14:00:18Z</time>
      </trkpt>
      <trkpt lat="45.43348" lon="0.60592">
        <ele>188.6</ele>
        <time>2022-10-29T14:00:29Z</time>
      </trkpt>
      <trkpt lat="45.4335" lon="0.60588">
        <ele>188.8</ele>
        <time>2022-10-29T14:00:34Z</time>
      </trkpt>
      <trkpt lat="45.43352" lon="0.60586">
        <ele>189</ele>
        <time>2022-10-29T14:00:37Z</time>
      </trkpt>
      <trkpt lat="45.43352" lon="0.60584">
        <ele>189.2</ele>
        <time>2022-10-29T14:00:40Z</time>
      </trkpt>
      <trkpt lat="45.43353" lon="0.60583">
        <ele>189.4</ele>
        <time>2022-10-29T14:00:44Z</time>
      </trkpt>
      <trkpt lat="45.43361" lon="0.60578">
        <ele>189</ele>
        <time>2022-10-29T14:00:56Z</time>
      </trkpt>
      <trkpt lat="45.43365" lon="0.60574">
        <ele>188.6</ele>
        <time>2022-10-29T14:01:13Z</time>
      </trkpt>
      <trkpt lat="45.43364" lon="0.6058">
        <ele>188.4</ele>
        <time>2022-10-29T14:01:28Z</time>
      </trkpt>
      <trkpt lat="45.43365" lon="0.60578">
        <ele>187.8</ele>
        <time>2022-10-29T14:01:50Z</time>
      </trkpt>
      <trkpt lat="45.43365" lon="0.60576">
        <ele>188</ele>
        <time>2022-10-29T14:02:09Z</time>
      </trkpt>
      <trkpt lat="45.43366" lon="0.60579">
        <ele>188.2</ele>
        <time>2022-10-29T14:02:19Z</time>
      </trkpt>
      <trkpt lat="45.4337" lon="0.60583">
        <ele>188.4</ele>
        <time>2022-10-29T14:02:33Z</time>
      </trkpt>
      <trkpt lat="45.43368" lon="0.60584">
        <ele>187.8</ele>
        <time>2022-10-29T14:02:47Z</time>
      </trkpt>
      <trkpt lat="45.43371" lon="0.60574">
        <ele>188.8</ele>
        <time>2022-10-29T14:03:04Z</time>
      </trkpt>
      <trkpt lat="45.43376" lon="0.60562">
        <ele>189.6</ele>
        <time>2022-10-29T14:03:16Z</time>
      </trkpt>
      <trkpt lat="45.43376" lon="0.6056">
        <ele>189.6</ele>
        <time>2022-10-29T14:03:18Z</time>
      </trkpt>
      <trkpt lat="45.43378" lon="0.60557">
        <ele>189.8</ele>
        <time>2022-10-29T14:03:20Z</time>
      </trkpt>
      <trkpt lat="45.43381" lon="0.60552">
        <ele>190.4</ele>
        <time>2022-10-29T14:03:23Z</time>
      </trkpt>
      <trkpt lat="45.43382" lon="0.60549">
        <ele>191</ele>
        <time>2022-10-29T14:03:25Z</time>
      </trkpt>
      <trkpt lat="45.43385" lon="0.60547">
        <ele>191.2</ele>
        <time>2022-10-29T14:03:28Z</time>
      </trkpt>
      <trkpt lat="45.43394" lon="0.60532">
        <ele>192</ele>
        <time>2022-10-29T14:03:39Z</time>
      </trkpt>
      <trkpt lat="45.43396" lon="0.60528">
        <ele>192.4</ele>
        <time>2022-10-29T14:03:42Z</time>
      </trkpt>
      <trkpt lat="45.43401" lon="0.6052">
        <ele>193</ele>
        <time>2022-10-29T14:03:48Z</time>
      </trkpt>
      <trkpt lat="45.43409" lon="0.60507">
        <ele>193.8</ele>
        <time>2022-10-29T14:03:58Z</time>
      </trkpt>
      <trkpt lat="45.43412" lon="0.60506">
        <ele>194.2</ele>
        <time>2022-10-29T14:04:02Z</time>
      </trkpt>
      <trkpt lat="45.43413" lon="0.60506">
        <ele>194.8</ele>
        <time>2022-10-29T14:04:07Z</time>
      </trkpt>
      <trkpt lat="45.43414" lon="0.60508">
        <ele>195.2</ele>
        <time>2022-10-29T14:04:10Z</time>
      </trkpt>
      <trkpt lat="45.43414" lon="0.60508">
        <ele>195.4</ele>
        <time>2022-10-29T14:04:21Z</time>
      </trkpt>
      <trkpt lat="45.43413" lon="0.60508">
        <ele>194.8</ele>
        <time>2022-10-29T14:04:38Z</time>
      </trkpt>
      <trkpt lat="45.43413" lon="0.60507">
        <ele>194.6</ele>
        <time>2022-10-29T14:04:55Z</time>
      </trkpt>
      <trkpt lat="45.43412" lon="0.60508">
        <ele>194.4</ele>
        <time>2022-10-29T14:05:12Z</time>
      </trkpt>
      <trkpt lat="45.4341" lon="0.60503">
        <ele>194.4</ele>
        <time>2022-10-29T14:05:20Z</time>
      </trkpt>
      <trkpt lat="45.43411" lon="0.60503">
        <ele>194.2</ele>
        <time>2022-10-29T14:05:33Z</time>
      </trkpt>
      <trkpt lat="45.4341" lon="0.60503">
        <ele>194.2</ele>
        <time>2022-10-29T14:05:36Z</time>
      </trkpt>
      <trkpt lat="45.43413" lon="0.60496">
        <ele>194.6</ele>
        <time>2022-10-29T14:05:45Z</time>
      </trkpt>
      <trkpt lat="45.43413" lon="0.60492">
        <ele>195.4</ele>
        <time>2022-10-29T14:05:48Z</time>
      </trkpt>
      <trkpt lat="45.43413" lon="0.60487">
        <ele>195.8</ele>
        <time>2022-10-29T14:05:51Z</time>
      </trkpt>
      <trkpt lat="45.43411" lon="0.60483">
        <ele>195.8</ele>
        <time>2022-10-29T14:05:53Z</time>
      </trkpt>
      <trkpt lat="45.4341" lon="0.60479">
        <ele>196.2</ele>
        <time>2022-10-29T14:05:56Z</time>
      </trkpt>
      <trkpt lat="45.43409" lon="0.60478">
        <ele>196.4</ele>
        <time>2022-10-29T14:05:57Z</time>
      </trkpt>
      <trkpt lat="45.43406" lon="0.60473">
        <ele>197.2</ele>
        <time>2022-10-29T14:06:03Z</time>
      </trkpt>
      <trkpt lat="45.43404" lon="0.60471">
        <ele>197.6</ele>
        <time>2022-10-29T14:06:06Z</time>
      </trkpt>
      <trkpt lat="45.43403" lon="0.60471">
        <ele>197.6</ele>
        <time>2022-10-29T14:06:07Z</time>
      </trkpt>
      <trkpt lat="45.43394" lon="0.60466">
        <ele>198.6</ele>
        <time>2022-10-29T14:06:16Z</time>
      </trkpt>
      <trkpt lat="45.43392" lon="0.60466">
        <ele>198.8</ele>
        <time>2022-10-29T14:06:18Z</time>
      </trkpt>
      <trkpt lat="45.43382" lon="0.60465">
        <ele>199.8</ele>
        <time>2022-10-29T14:06:28Z</time>
      </trkpt>
      <trkpt lat="45.43377" lon="0.60462">
        <ele>200</ele>
        <time>2022-10-29T14:06:33Z</time>
      </trkpt>
      <trkpt lat="45.43366" lon="0.60453">
        <ele>200.8</ele>
        <time>2022-10-29T14:06:45Z</time>
      </trkpt>
      <trkpt lat="45.43364" lon="0.60451">
        <ele>201</ele>
        <time>2022-10-29T14:06:47Z</time>
      </trkpt>
      <trkpt lat="45.4335" lon="0.6044">
        <ele>201.6</ele>
        <time>2022-10-29T14:07:00Z</time>
      </trkpt>
      <trkpt lat="45.4334" lon="0.60434">
        <ele>201.8</ele>
        <time>2022-10-29T14:07:10Z</time>
      </trkpt>
      <trkpt lat="45.43332" lon="0.60432">
        <ele>202.4</ele>
        <time>2022-10-29T14:07:15Z</time>
      </trkpt>
      <trkpt lat="45.43331" lon="0.60431">
        <ele>202.4</ele>
        <time>2022-10-29T14:07:16Z</time>
      </trkpt>
      <trkpt lat="45.43321" lon="0.60425">
        <ele>203</ele>
        <time>2022-10-29T14:07:26Z</time>
      </trkpt>
      <trkpt lat="45.43315" lon="0.60422">
        <ele>203</ele>
        <time>2022-10-29T14:07:33Z</time>
      </trkpt>
      <trkpt lat="45.43309" lon="0.6042">
        <ele>203.2</ele>
        <time>2022-10-29T14:07:46Z</time>
      </trkpt>
      <trkpt lat="45.43308" lon="0.6042">
        <ele>203.2</ele>
        <time>2022-10-29T14:07:47Z</time>
      </trkpt>
      <trkpt lat="45.43306" lon="0.6042">
        <ele>203.2</ele>
        <time>2022-10-29T14:07:49Z</time>
      </trkpt>
      <trkpt lat="45.43301" lon="0.60416">
        <ele>203.6</ele>
        <time>2022-10-29T14:07:55Z</time>
      </trkpt>
      <trkpt lat="45.433" lon="0.60416">
        <ele>203.8</ele>
        <time>2022-10-29T14:07:57Z</time>
      </trkpt>
      <trkpt lat="45.43299" lon="0.60416">
        <ele>204</ele>
        <time>2022-10-29T14:07:58Z</time>
      </trkpt>
      <trkpt lat="45.43298" lon="0.60415">
        <ele>204.2</ele>
        <time>2022-10-29T14:07:59Z</time>
      </trkpt>
      <trkpt lat="45.43297" lon="0.60414">
        <ele>204.4</ele>
        <time>2022-10-29T14:08:01Z</time>
      </trkpt>
      <trkpt lat="45.43293" lon="0.60412">
        <ele>204.6</ele>
        <time>2022-10-29T14:08:05Z</time>
      </trkpt>
      <trkpt lat="45.4329" lon="0.6041">
        <ele>204.6</ele>
        <time>2022-10-29T14:08:08Z</time>
      </trkpt>
      <trkpt lat="45.43286" lon="0.60408">
        <ele>204.8</ele>
        <time>2022-10-29T14:08:11Z</time>
      </trkpt>
      <trkpt lat="45.43282" lon="0.60406">
        <ele>205</ele>
        <time>2022-10-29T14:08:14Z</time>
      </trkpt>
      <trkpt lat="45.43273" lon="0.604">
        <ele>206.2</ele>
        <time>2022-10-29T14:08:22Z</time>
      </trkpt>
      <trkpt lat="45.43268" lon="0.60399">
        <ele>206.8</ele>
        <time>2022-10-29T14:08:29Z</time>
      </trkpt>
      <trkpt lat="45.43267" lon="0.60399">
        <ele>206.8</ele>
        <time>2022-10-29T14:08:30Z</time>
      </trkpt>
      <trkpt lat="45.43266" lon="0.604">
        <ele>207</ele>
        <time>2022-10-29T14:08:32Z</time>
      </trkpt>
      <trkpt lat="45.43266" lon="0.604">
        <ele>207.2</ele>
        <time>2022-10-29T14:08:33Z</time>
      </trkpt>
      <trkpt lat="45.43265" lon="0.604">
        <ele>207.4</ele>
        <time>2022-10-29T14:08:34Z</time>
      </trkpt>
      <trkpt lat="45.4326" lon="0.60403">
        <ele>207.8</ele>
        <time>2022-10-29T14:08:38Z</time>
      </trkpt>
      <trkpt lat="45.43259" lon="0.60404">
        <ele>207.8</ele>
        <time>2022-10-29T14:08:41Z</time>
      </trkpt>
      <trkpt lat="45.43258" lon="0.60404">
        <ele>207.8</ele>
        <time>2022-10-29T14:08:42Z</time>
      </trkpt>
      <trkpt lat="45.43258" lon="0.60405">
        <ele>207.8</ele>
        <time>2022-10-29T14:08:43Z</time>
      </trkpt>
      <trkpt lat="45.43255" lon="0.60407">
        <ele>208.2</ele>
        <time>2022-10-29T14:08:48Z</time>
      </trkpt>
      <trkpt lat="45.43253" lon="0.60409">
        <ele>208.4</ele>
        <time>2022-10-29T14:08:49Z</time>
      </trkpt>
      <trkpt lat="45.43252" lon="0.6041">
        <ele>208.6</ele>
        <time>2022-10-29T14:08:52Z</time>
      </trkpt>
      <trkpt lat="45.43249" lon="0.60414">
        <ele>209.4</ele>
        <time>2022-10-29T14:08:58Z</time>
      </trkpt>
      <trkpt lat="45.43243" lon="0.60422">
        <ele>210.6</ele>
        <time>2022-10-29T14:09:09Z</time>
      </trkpt>
      <trkpt lat="45.43237" lon="0.60429">
        <ele>211.6</ele>
        <time>2022-10-29T14:09:17Z</time>
      </trkpt>
      <trkpt lat="45.43237" lon="0.60429">
        <ele>211.6</ele>
        <time>2022-10-29T14:09:18Z</time>
      </trkpt>
      <trkpt lat="45.43232" lon="0.60435">
        <ele>212.6</ele>
        <time>2022-10-29T14:09:26Z</time>
      </trkpt>
      <trkpt lat="45.43226" lon="0.60442">
        <ele>213.4</ele>
        <time>2022-10-29T14:09:34Z</time>
      </trkpt>
      <trkpt lat="45.43224" lon="0.60443">
        <ele>213.8</ele>
        <time>2022-10-29T14:09:36Z</time>
      </trkpt>
      <trkpt lat="45.43217" lon="0.60451">
        <ele>215</ele>
        <time>2022-10-29T14:09:46Z</time>
      </trkpt>
      <trkpt lat="45.43213" lon="0.60454">
        <ele>215.4</ele>
        <time>2022-10-29T14:09:50Z</time>
      </trkpt>
      <trkpt lat="45.43209" lon="0.60462">
        <ele>216</ele>
        <time>2022-10-29T14:09:56Z</time>
      </trkpt>
      <trkpt lat="45.43204" lon="0.6047">
        <ele>216.8</ele>
        <time>2022-10-29T14:10:04Z</time>
      </trkpt>
      <trkpt lat="45.43203" lon="0.60471">
        <ele>217</ele>
        <time>2022-10-29T14:10:05Z</time>
      </trkpt>
      <trkpt lat="45.43197" lon="0.60482">
        <ele>218</ele>
        <time>2022-10-29T14:10:16Z</time>
      </trkpt>
      <trkpt lat="45.43193" lon="0.60487">
        <ele>218.8</ele>
        <time>2022-10-29T14:10:21Z</time>
      </trkpt>
      <trkpt lat="45.43186" lon="0.60494">
        <ele>219</ele>
        <time>2022-10-29T14:10:29Z</time>
      </trkpt>
      <trkpt lat="45.43178" lon="0.60498">
        <ele>219.8</ele>
        <time>2022-10-29T14:10:37Z</time>
      </trkpt>
      <trkpt lat="45.43177" lon="0.60499">
        <ele>220.2</ele>
        <time>2022-10-29T14:10:40Z</time>
      </trkpt>
      <trkpt lat="45.43168" lon="0.60504">
        <ele>221</ele>
        <time>2022-10-29T14:10:53Z</time>
      </trkpt>
      <trkpt lat="45.43168" lon="0.60505">
        <ele>221.2</ele>
        <time>2022-10-29T14:10:54Z</time>
      </trkpt>
      <trkpt lat="45.43167" lon="0.60506">
        <ele>221.2</ele>
        <time>2022-10-29T14:10:55Z</time>
      </trkpt>
      <trkpt lat="45.43166" lon="0.60506">
        <ele>221.4</ele>
        <time>2022-10-29T14:10:56Z</time>
      </trkpt>
      <trkpt lat="45.43163" lon="0.60507">
        <ele>221.6</ele>
        <time>2022-10-29T14:10:59Z</time>
      </trkpt>
      <trkpt lat="45.43158" lon="0.60511">
        <ele>221.8</ele>
        <time>2022-10-29T14:11:05Z</time>
      </trkpt>
      <trkpt lat="45.43157" lon="0.60511">
        <ele>222.2</ele>
        <time>2022-10-29T14:11:07Z</time>
      </trkpt>
      <trkpt lat="45.43156" lon="0.60512">
        <ele>222.2</ele>
        <time>2022-10-29T14:11:08Z</time>
      </trkpt>
      <trkpt lat="45.43156" lon="0.60512">
        <ele>222.2</ele>
        <time>2022-10-29T14:11:09Z</time>
      </trkpt>
      <trkpt lat="45.43151" lon="0.60519">
        <ele>222.4</ele>
        <time>2022-10-29T14:11:17Z</time>
      </trkpt>
      <trkpt lat="45.43149" lon="0.60522">
        <ele>222.6</ele>
        <time>2022-10-29T14:11:20Z</time>
      </trkpt>
      <trkpt lat="45.43148" lon="0.60524">
        <ele>222.8</ele>
        <time>2022-10-29T14:11:25Z</time>
      </trkpt>
      <trkpt lat="45.43146" lon="0.60525">
        <ele>223.2</ele>
        <time>2022-10-29T14:11:34Z</time>
      </trkpt>
      <trkpt lat="45.43148" lon="0.60532">
        <ele>223.4</ele>
        <time>2022-10-29T14:11:51Z</time>
      </trkpt>
      <trkpt lat="45.43152" lon="0.6054">
        <ele>224</ele>
        <time>2022-10-29T14:12:01Z</time>
      </trkpt>
      <trkpt lat="45.43156" lon="0.6054">
        <ele>224</ele>
        <time>2022-10-29T14:12:14Z</time>
      </trkpt>
      <trkpt lat="45.43153" lon="0.60538">
        <ele>223.4</ele>
        <time>2022-10-29T14:12:30Z</time>
      </trkpt>
      <trkpt lat="45.43151" lon="0.60534">
        <ele>223</ele>
        <time>2022-10-29T14:12:41Z</time>
      </trkpt>
      <trkpt lat="45.4315" lon="0.60534">
        <ele>223</ele>
        <time>2022-10-29T14:12:53Z</time>
      </trkpt>
      <trkpt lat="45.43148" lon="0.60534">
        <ele>223.2</ele>
        <time>2022-10-29T14:13:11Z</time>
      </trkpt>
      <trkpt lat="45.4315" lon="0.60535">
        <ele>223.2</ele>
        <time>2022-10-29T14:13:29Z</time>
      </trkpt>
      <trkpt lat="45.4315" lon="0.60535">
        <ele>223</ele>
        <time>2022-10-29T14:13:46Z</time>
      </trkpt>
      <trkpt lat="45.43147" lon="0.6053">
        <ele>223.2</ele>
        <time>2022-10-29T14:14:05Z</time>
      </trkpt>
      <trkpt lat="45.43145" lon="0.60528">
        <ele>223.2</ele>
        <time>2022-10-29T14:14:08Z</time>
      </trkpt>
      <trkpt lat="45.43137" lon="0.60523">
        <ele>223.6</ele>
        <time>2022-10-29T14:14:18Z</time>
      </trkpt>
      <trkpt lat="45.43136" lon="0.60523">
        <ele>223.6</ele>
        <time>2022-10-29T14:14:20Z</time>
      </trkpt>
      <trkpt lat="45.43134" lon="0.60527">
        <ele>223.8</ele>
        <time>2022-10-29T14:14:24Z</time>
      </trkpt>
      <trkpt lat="45.43133" lon="0.60528">
        <ele>223.8</ele>
        <time>2022-10-29T14:14:26Z</time>
      </trkpt>
      <trkpt lat="45.43133" lon="0.60529">
        <ele>224</ele>
        <time>2022-10-29T14:14:27Z</time>
      </trkpt>
      <trkpt lat="45.43133" lon="0.60529">
        <ele>224</ele>
        <time>2022-10-29T14:14:28Z</time>
      </trkpt>
      <trkpt lat="45.43132" lon="0.60532">
        <ele>224</ele>
        <time>2022-10-29T14:14:31Z</time>
      </trkpt>
      <trkpt lat="45.43132" lon="0.60533">
        <ele>224.2</ele>
        <time>2022-10-29T14:14:35Z</time>
      </trkpt>
      <trkpt lat="45.43131" lon="0.60535">
        <ele>224</ele>
        <time>2022-10-29T14:14:42Z</time>
      </trkpt>
      <trkpt lat="45.43131" lon="0.60535">
        <ele>224.2</ele>
        <time>2022-10-29T14:14:46Z</time>
      </trkpt>
      <trkpt lat="45.43131" lon="0.60539">
        <ele>224.2</ele>
        <time>2022-10-29T14:14:56Z</time>
      </trkpt>
      <trkpt lat="45.43132" lon="0.60534">
        <ele>224</ele>
        <time>2022-10-29T14:15:08Z</time>
      </trkpt>
      <trkpt lat="45.43127" lon="0.6053">
        <ele>223.2</ele>
        <time>2022-10-29T14:15:13Z</time>
      </trkpt>
      <trkpt lat="45.4312" lon="0.60526">
        <ele>222.6</ele>
        <time>2022-10-29T14:15:19Z</time>
      </trkpt>
      <trkpt lat="45.43105" lon="0.60518">
        <ele>222.6</ele>
        <time>2022-10-29T14:15:34Z</time>
      </trkpt>
      <trkpt lat="45.43094" lon="0.6051">
        <ele>223</ele>
        <time>2022-10-29T14:15:46Z</time>
      </trkpt>
      <trkpt lat="45.43082" lon="0.60501">
        <ele>222.8</ele>
        <time>2022-10-29T14:16:00Z</time>
      </trkpt>
      <trkpt lat="45.43082" lon="0.60502">
        <ele>222.8</ele>
        <time>2022-10-29T14:16:01Z</time>
      </trkpt>
      <trkpt lat="45.4308" lon="0.60505">
        <ele>222.8</ele>
        <time>2022-10-29T14:16:06Z</time>
      </trkpt>
      <trkpt lat="45.43079" lon="0.60507">
        <ele>222.8</ele>
        <time>2022-10-29T14:16:09Z</time>
      </trkpt>
      <trkpt lat="45.43075" lon="0.60512">
        <ele>223</ele>
        <time>2022-10-29T14:16:15Z</time>
      </trkpt>
      <trkpt lat="45.43074" lon="0.60513">
        <ele>223</ele>
        <time>2022-10-29T14:16:17Z</time>
      </trkpt>
      <trkpt lat="45.43074" lon="0.60513">
        <ele>223</ele>
        <time>2022-10-29T14:16:21Z</time>
      </trkpt>
      <trkpt lat="45.43071" lon="0.60517">
        <ele>223.4</ele>
        <time>2022-10-29T14:16:35Z</time>
      </trkpt>
      <trkpt lat="45.43075" lon="0.60511">
        <ele>222.8</ele>
        <time>2022-10-29T14:16:47Z</time>
      </trkpt>
      <trkpt lat="45.43078" lon="0.60507">
        <ele>222.8</ele>
        <time>2022-10-29T14:16:52Z</time>
      </trkpt>
      <trkpt lat="45.4308" lon="0.60499">
        <ele>222.4</ele>
        <time>2022-10-29T14:17:01Z</time>
      </trkpt>
      <trkpt lat="45.43075" lon="0.60492">
        <ele>222.8</ele>
        <time>2022-10-29T14:17:12Z</time>
      </trkpt>
      <trkpt lat="45.43067" lon="0.6049">
        <ele>222.4</ele>
        <time>2022-10-29T14:17:23Z</time>
      </trkpt>
      <trkpt lat="45.43065" lon="0.6049">
        <ele>222</ele>
        <time>2022-10-29T14:17:26Z</time>
      </trkpt>
      <trkpt lat="45.43061" lon="0.60491">
        <ele>221.4</ele>
        <time>2022-10-29T14:17:31Z</time>
      </trkpt>
      <trkpt lat="45.43059" lon="0.60491">
        <ele>221.4</ele>
        <time>2022-10-29T14:17:33Z</time>
      </trkpt>
      <trkpt lat="45.43054" lon="0.60491">
        <ele>221.2</ele>
        <time>2022-10-29T14:17:37Z</time>
      </trkpt>
      <trkpt lat="45.43045" lon="0.60482">
        <ele>221.4</ele>
        <time>2022-10-29T14:17:49Z</time>
      </trkpt>
      <trkpt lat="45.43043" lon="0.60477">
        <ele>221.6</ele>
        <time>2022-10-29T14:17:56Z</time>
      </trkpt>
      <trkpt lat="45.4304" lon="0.60479">
        <ele>221.4</ele>
        <time>2022-10-29T14:18:01Z</time>
      </trkpt>
      <trkpt lat="45.43039" lon="0.6048">
        <ele>220.8</ele>
        <time>2022-10-29T14:18:04Z</time>
      </trkpt>
      <trkpt lat="45.43037" lon="0.6048">
        <ele>220.2</ele>
        <time>2022-10-29T14:18:16Z</time>
      </trkpt>
      <trkpt lat="45.43038" lon="0.60478">
        <ele>220.2</ele>
        <time>2022-10-29T14:18:34Z</time>
      </trkpt>
      <trkpt lat="45.43037" lon="0.60478">
        <ele>220.4</ele>
        <time>2022-10-29T14:18:51Z</time>
      </trkpt>
      <trkpt lat="45.43036" lon="0.60479">
        <ele>220.4</ele>
        <time>2022-10-29T14:19:03Z</time>
      </trkpt>
      <trkpt lat="45.43037" lon="0.60479">
        <ele>219.8</ele>
        <time>2022-10-29T14:19:10Z</time>
      </trkpt>
      <trkpt lat="45.43037" lon="0.6048">
        <ele>220</ele>
        <time>2022-10-29T14:19:18Z</time>
      </trkpt>
      <trkpt lat="45.43036" lon="0.60479">
        <ele>220.4</ele>
        <time>2022-10-29T14:19:33Z</time>
      </trkpt>
      <trkpt lat="45.43036" lon="0.60478">
        <ele>220.4</ele>
        <time>2022-10-29T14:19:52Z</time>
      </trkpt>
      <trkpt lat="45.43037" lon="0.60477">
        <ele>220.2</ele>
        <time>2022-10-29T14:20:11Z</time>
      </trkpt>
      <trkpt lat="45.43039" lon="0.60477">
        <ele>220.2</ele>
        <time>2022-10-29T14:20:25Z</time>
      </trkpt>
      <trkpt lat="45.4304" lon="0.60477">
        <ele>220.6</ele>
        <time>2022-10-29T14:20:34Z</time>
      </trkpt>
      <trkpt lat="45.43041" lon="0.60475">
        <ele>220.8</ele>
        <time>2022-10-29T14:20:37Z</time>
      </trkpt>
      <trkpt lat="45.43039" lon="0.60466">
        <ele>221.6</ele>
        <time>2022-10-29T14:20:45Z</time>
      </trkpt>
      <trkpt lat="45.43038" lon="0.60463">
        <ele>221.8</ele>
        <time>2022-10-29T14:20:48Z</time>
      </trkpt>
      <trkpt lat="45.43032" lon="0.60456">
        <ele>222</ele>
        <time>2022-10-29T14:20:59Z</time>
      </trkpt>
      <trkpt lat="45.43025" lon="0.60454">
        <ele>222</ele>
        <time>2022-10-29T14:21:11Z</time>
      </trkpt>
      <trkpt lat="45.43023" lon="0.60448">
        <ele>222.4</ele>
        <time>2022-10-29T14:21:21Z</time>
      </trkpt>
      <trkpt lat="45.43017" lon="0.60442">
        <ele>221.4</ele>
        <time>2022-10-29T14:21:32Z</time>
      </trkpt>
      <trkpt lat="45.43013" lon="0.60443">
        <ele>222</ele>
        <time>2022-10-29T14:21:45Z</time>
      </trkpt>
      <trkpt lat="45.43009" lon="0.60446">
        <ele>221.8</ele>
        <time>2022-10-29T14:21:57Z</time>
      </trkpt>
      <trkpt lat="45.4301" lon="0.60444">
        <ele>222</ele>
        <time>2022-10-29T14:22:06Z</time>
      </trkpt>
      <trkpt lat="45.43014" lon="0.60445">
        <ele>221.6</ele>
        <time>2022-10-29T14:22:19Z</time>
      </trkpt>
      <trkpt lat="45.43009" lon="0.60452">
        <ele>221.6</ele>
        <time>2022-10-29T14:22:28Z</time>
      </trkpt>
      <trkpt lat="45.43009" lon="0.60453">
        <ele>221.6</ele>
        <time>2022-10-29T14:22:29Z</time>
      </trkpt>
      <trkpt lat="45.43008" lon="0.60455">
        <ele>221.6</ele>
        <time>2022-10-29T14:22:38Z</time>
      </trkpt>
      <trkpt lat="45.43011" lon="0.60446">
        <ele>221.4</ele>
        <time>2022-10-29T14:22:47Z</time>
      </trkpt>
      <trkpt lat="45.43011" lon="0.60444">
        <ele>221.4</ele>
        <time>2022-10-29T14:22:48Z</time>
      </trkpt>
      <trkpt lat="45.43017" lon="0.60433">
        <ele>222.2</ele>
        <time>2022-10-29T14:22:57Z</time>
      </trkpt>
      <trkpt lat="45.43017" lon="0.60432">
        <ele>222</ele>
        <time>2022-10-29T14:22:58Z</time>
      </trkpt>
      <trkpt lat="45.43016" lon="0.6043">
        <ele>221.6</ele>
        <time>2022-10-29T14:23:10Z</time>
      </trkpt>
      <trkpt lat="45.43013" lon="0.60426">
        <ele>221.8</ele>
        <time>2022-10-29T14:23:28Z</time>
      </trkpt>
      <trkpt lat="45.43015" lon="0.60427">
        <ele>222</ele>
        <time>2022-10-29T14:23:44Z</time>
      </trkpt>
      <trkpt lat="45.43015" lon="0.60427">
        <ele>222.4</ele>
        <time>2022-10-29T14:24:00Z</time>
      </trkpt>
      <trkpt lat="45.43015" lon="0.60426">
        <ele>222.4</ele>
        <time>2022-10-29T14:24:12Z</time>
      </trkpt>
      <trkpt lat="45.43014" lon="0.60423">
        <ele>221.8</ele>
        <time>2022-10-29T14:24:24Z</time>
      </trkpt>
      <trkpt lat="45.43006" lon="0.60411">
        <ele>222</ele>
        <time>2022-10-29T14:24:37Z</time>
      </trkpt>
      <trkpt lat="45.43003" lon="0.60398">
        <ele>222.6</ele>
        <time>2022-10-29T14:24:48Z</time>
      </trkpt>
      <trkpt lat="45.42994" lon="0.60383">
        <ele>222.6</ele>
        <time>2022-10-29T14:25:01Z</time>
      </trkpt>
      <trkpt lat="45.42988" lon="0.60373">
        <ele>222.4</ele>
        <time>2022-10-29T14:25:12Z</time>
      </trkpt>
      <trkpt lat="45.42987" lon="0.60374">
        <ele>222.4</ele>
        <time>2022-10-29T14:25:14Z</time>
      </trkpt>
      <trkpt lat="45.42987" lon="0.60371">
        <ele>222.6</ele>
        <time>2022-10-29T14:25:23Z</time>
      </trkpt>
      <trkpt lat="45.42981" lon="0.60358">
        <ele>222.6</ele>
        <time>2022-10-29T14:25:34Z</time>
      </trkpt>
      <trkpt lat="45.42972" lon="0.60342">
        <ele>222.2</ele>
        <time>2022-10-29T14:25:47Z</time>
      </trkpt>
      <trkpt lat="45.4296" lon="0.60324">
        <ele>221.8</ele>
        <time>2022-10-29T14:26:03Z</time>
      </trkpt>
      <trkpt lat="45.42949" lon="0.60303">
        <ele>221</ele>
        <time>2022-10-29T14:26:19Z</time>
      </trkpt>
      <trkpt lat="45.42948" lon="0.60302">
        <ele>221</ele>
        <time>2022-10-29T14:26:20Z</time>
      </trkpt>
      <trkpt lat="45.42945" lon="0.60298">
        <ele>220.8</ele>
        <time>2022-10-29T14:26:23Z</time>
      </trkpt>
      <trkpt lat="45.42936" lon="0.60291">
        <ele>220.4</ele>
        <time>2022-10-29T14:26:35Z</time>
      </trkpt>
      <trkpt lat="45.4293" lon="0.60293">
        <ele>219.6</ele>
        <time>2022-10-29T14:26:42Z</time>
      </trkpt>
      <trkpt lat="45.42925" lon="0.60296">
        <ele>219</ele>
        <time>2022-10-29T14:26:48Z</time>
      </trkpt>
      <trkpt lat="45.42925" lon="0.60298">
        <ele>218.8</ele>
        <time>2022-10-29T14:26:50Z</time>
      </trkpt>
      <trkpt lat="45.42925" lon="0.60299">
        <ele>218.6</ele>
        <time>2022-10-29T14:26:52Z</time>
      </trkpt>
      <trkpt lat="45.42925" lon="0.60303">
        <ele>217.6</ele>
        <time>2022-10-29T14:26:58Z</time>
      </trkpt>
      <trkpt lat="45.42925" lon="0.60305">
        <ele>217.2</ele>
        <time>2022-10-29T14:27:01Z</time>
      </trkpt>
      <trkpt lat="45.42923" lon="0.60309">
        <ele>216.2</ele>
        <time>2022-10-29T14:27:07Z</time>
      </trkpt>
      <trkpt lat="45.42921" lon="0.60312">
        <ele>215.2</ele>
        <time>2022-10-29T14:27:12Z</time>
      </trkpt>
      <trkpt lat="45.42922" lon="0.60312">
        <ele>214.6</ele>
        <time>2022-10-29T14:27:14Z</time>
      </trkpt>
      <trkpt lat="45.42924" lon="0.60312">
        <ele>214.2</ele>
        <time>2022-10-29T14:27:27Z</time>
      </trkpt>
      <trkpt lat="45.42924" lon="0.60311">
        <ele>214</ele>
        <time>2022-10-29T14:27:29Z</time>
      </trkpt>
      <trkpt lat="45.42922" lon="0.6031">
        <ele>213.8</ele>
        <time>2022-10-29T14:27:51Z</time>
      </trkpt>
      <trkpt lat="45.42919" lon="0.60312">
        <ele>213.8</ele>
        <time>2022-10-29T14:28:10Z</time>
      </trkpt>
      <trkpt lat="45.42919" lon="0.60313">
        <ele>213.6</ele>
        <time>2022-10-29T14:28:24Z</time>
      </trkpt>
      <trkpt lat="45.42919" lon="0.60312">
        <ele>214.4</ele>
        <time>2022-10-29T14:28:37Z</time>
      </trkpt>
      <trkpt lat="45.42921" lon="0.60311">
        <ele>215</ele>
        <time>2022-10-29T14:28:56Z</time>
      </trkpt>
      <trkpt lat="45.42921" lon="0.60311">
        <ele>215.2</ele>
        <time>2022-10-29T14:28:57Z</time>
      </trkpt>
      <trkpt lat="45.42925" lon="0.6031">
        <ele>216.2</ele>
        <time>2022-10-29T14:29:03Z</time>
      </trkpt>
      <trkpt lat="45.42928" lon="0.60312">
        <ele>217</ele>
        <time>2022-10-29T14:29:08Z</time>
      </trkpt>
      <trkpt lat="45.42929" lon="0.60313">
        <ele>217.2</ele>
        <time>2022-10-29T14:29:09Z</time>
      </trkpt>
      <trkpt lat="45.42929" lon="0.60313">
        <ele>217.2</ele>
        <time>2022-10-29T14:29:10Z</time>
      </trkpt>
      <trkpt lat="45.4293" lon="0.60314">
        <ele>217.2</ele>
        <time>2022-10-29T14:29:11Z</time>
      </trkpt>
      <trkpt lat="45.42936" lon="0.60319">
        <ele>217.8</ele>
        <time>2022-10-29T14:29:19Z</time>
      </trkpt>
      <trkpt lat="45.42937" lon="0.60319">
        <ele>218</ele>
        <time>2022-10-29T14:29:21Z</time>
      </trkpt>
      <trkpt lat="45.42938" lon="0.6032">
        <ele>218</ele>
        <time>2022-10-29T14:29:23Z</time>
      </trkpt>
      <trkpt lat="45.42939" lon="0.60321">
        <ele>218.2</ele>
        <time>2022-10-29T14:29:24Z</time>
      </trkpt>
      <trkpt lat="45.42939" lon="0.60322">
        <ele>218.4</ele>
        <time>2022-10-29T14:29:25Z</time>
      </trkpt>
      <trkpt lat="45.42941" lon="0.60324">
        <ele>218.8</ele>
        <time>2022-10-29T14:29:27Z</time>
      </trkpt>
      <trkpt lat="45.42942" lon="0.60327">
        <ele>219</ele>
        <time>2022-10-29T14:29:30Z</time>
      </trkpt>
      <trkpt lat="45.42942" lon="0.6033">
        <ele>219.2</ele>
        <time>2022-10-29T14:29:32Z</time>
      </trkpt>
      <trkpt lat="45.42945" lon="0.60336">
        <ele>219.2</ele>
        <time>2022-10-29T14:29:37Z</time>
      </trkpt>
      <trkpt lat="45.42945" lon="0.60337">
        <ele>219.2</ele>
        <time>2022-10-29T14:29:38Z</time>
      </trkpt>
      <trkpt lat="45.42947" lon="0.60349">
        <ele>219</ele>
        <time>2022-10-29T14:29:51Z</time>
      </trkpt>
      <trkpt lat="45.42948" lon="0.6035">
        <ele>219</ele>
        <time>2022-10-29T14:29:53Z</time>
      </trkpt>
      <trkpt lat="45.42948" lon="0.60357">
        <ele>218</ele>
        <time>2022-10-29T14:30:03Z</time>
      </trkpt>
      <trkpt lat="45.42948" lon="0.6036">
        <ele>217.6</ele>
        <time>2022-10-29T14:30:07Z</time>
      </trkpt>
      <trkpt lat="45.42948" lon="0.60362">
        <ele>217</ele>
        <time>2022-10-29T14:30:09Z</time>
      </trkpt>
      <trkpt lat="45.4295" lon="0.60368">
        <ele>216</ele>
        <time>2022-10-29T14:30:17Z</time>
      </trkpt>
      <trkpt lat="45.4295" lon="0.60372">
        <ele>215.2</ele>
        <time>2022-10-29T14:30:21Z</time>
      </trkpt>
      <trkpt lat="45.42951" lon="0.60374">
        <ele>215</ele>
        <time>2022-10-29T14:30:23Z</time>
      </trkpt>
      <trkpt lat="45.42953" lon="0.6038">
        <ele>214</ele>
        <time>2022-10-29T14:30:29Z</time>
      </trkpt>
      <trkpt lat="45.42953" lon="0.60389">
        <ele>213</ele>
        <time>2022-10-29T14:30:37Z</time>
      </trkpt>
      <trkpt lat="45.42954" lon="0.6039">
        <ele>212.8</ele>
        <time>2022-10-29T14:30:38Z</time>
      </trkpt>
      <trkpt lat="45.4296" lon="0.60398">
        <ele>212</ele>
        <time>2022-10-29T14:30:49Z</time>
      </trkpt>
      <trkpt lat="45.42961" lon="0.604">
        <ele>211.8</ele>
        <time>2022-10-29T14:30:51Z</time>
      </trkpt>
      <trkpt lat="45.42963" lon="0.60405">
        <ele>211.6</ele>
        <time>2022-10-29T14:30:55Z</time>
      </trkpt>
      <trkpt lat="45.42963" lon="0.60407">
        <ele>211.2</ele>
        <time>2022-10-29T14:30:57Z</time>
      </trkpt>
      <trkpt lat="45.42964" lon="0.60409">
        <ele>211</ele>
        <time>2022-10-29T14:30:59Z</time>
      </trkpt>
      <trkpt lat="45.42964" lon="0.6041">
        <ele>210.8</ele>
        <time>2022-10-29T14:31:00Z</time>
      </trkpt>
      <trkpt lat="45.42964" lon="0.6041">
        <ele>210.8</ele>
        <time>2022-10-29T14:31:01Z</time>
      </trkpt>
      <trkpt lat="45.42964" lon="0.60411">
        <ele>210.6</ele>
        <time>2022-10-29T14:31:02Z</time>
      </trkpt>
      <trkpt lat="45.42965" lon="0.60419">
        <ele>210</ele>
        <time>2022-10-29T14:31:08Z</time>
      </trkpt>
      <trkpt lat="45.42965" lon="0.60421">
        <ele>209.8</ele>
        <time>2022-10-29T14:31:10Z</time>
      </trkpt>
      <trkpt lat="45.42965" lon="0.60422">
        <ele>209.6</ele>
        <time>2022-10-29T14:31:11Z</time>
      </trkpt>
      <trkpt lat="45.42966" lon="0.60426">
        <ele>209.4</ele>
        <time>2022-10-29T14:31:15Z</time>
      </trkpt>
      <trkpt lat="45.42966" lon="0.60427">
        <ele>209.4</ele>
        <time>2022-10-29T14:31:16Z</time>
      </trkpt>
      <trkpt lat="45.42967" lon="0.60431">
        <ele>209.2</ele>
        <time>2022-10-29T14:31:19Z</time>
      </trkpt>
      <trkpt lat="45.42968" lon="0.60433">
        <ele>209.2</ele>
        <time>2022-10-29T14:31:20Z</time>
      </trkpt>
      <trkpt lat="45.42969" lon="0.60434">
        <ele>209.2</ele>
        <time>2022-10-29T14:31:21Z</time>
      </trkpt>
      <trkpt lat="45.42973" lon="0.60438">
        <ele>209.6</ele>
        <time>2022-10-29T14:31:27Z</time>
      </trkpt>
      <trkpt lat="45.42978" lon="0.60445">
        <ele>210.2</ele>
        <time>2022-10-29T14:31:36Z</time>
      </trkpt>
      <trkpt lat="45.42979" lon="0.60448">
        <ele>210.2</ele>
        <time>2022-10-29T14:31:39Z</time>
      </trkpt>
      <trkpt lat="45.4298" lon="0.60449">
        <ele>210.4</ele>
        <time>2022-10-29T14:31:41Z</time>
      </trkpt>
      <trkpt lat="45.42982" lon="0.60452">
        <ele>210.4</ele>
        <time>2022-10-29T14:31:44Z</time>
      </trkpt>
      <trkpt lat="45.42983" lon="0.60453">
        <ele>210.6</ele>
        <time>2022-10-29T14:31:46Z</time>
      </trkpt>
      <trkpt lat="45.42984" lon="0.60458">
        <ele>210.6</ele>
        <time>2022-10-29T14:31:50Z</time>
      </trkpt>
      <trkpt lat="45.42985" lon="0.60459">
        <ele>210.6</ele>
        <time>2022-10-29T14:31:51Z</time>
      </trkpt>
      <trkpt lat="45.42985" lon="0.6046">
        <ele>210.8</ele>
        <time>2022-10-29T14:31:52Z</time>
      </trkpt>
      <trkpt lat="45.42987" lon="0.60462">
        <ele>210.8</ele>
        <time>2022-10-29T14:31:54Z</time>
      </trkpt>
      <trkpt lat="45.42988" lon="0.60462">
        <ele>211</ele>
        <time>2022-10-29T14:31:55Z</time>
      </trkpt>
      <trkpt lat="45.42988" lon="0.60464">
        <ele>211</ele>
        <time>2022-10-29T14:31:57Z</time>
      </trkpt>
      <trkpt lat="45.42991" lon="0.60468">
        <ele>211.2</ele>
        <time>2022-10-29T14:32:03Z</time>
      </trkpt>
      <trkpt lat="45.42994" lon="0.60469">
        <ele>211.2</ele>
        <time>2022-10-29T14:32:06Z</time>
      </trkpt>
      <trkpt lat="45.42997" lon="0.6047">
        <ele>211.4</ele>
        <time>2022-10-29T14:32:08Z</time>
      </trkpt>
      <trkpt lat="45.42998" lon="0.6047">
        <ele>211.6</ele>
        <time>2022-10-29T14:32:13Z</time>
      </trkpt>
      <trkpt lat="45.42998" lon="0.6047">
        <ele>212.4</ele>
        <time>2022-10-29T14:32:19Z</time>
      </trkpt>
      <trkpt lat="45.42998" lon="0.6047">
        <ele>212.8</ele>
        <time>2022-10-29T14:32:21Z</time>
      </trkpt>
      <trkpt lat="45.42998" lon="0.6047">
        <ele>211.8</ele>
        <time>2022-10-29T14:32:28Z</time>
      </trkpt>
      <trkpt lat="45.42998" lon="0.60471">
        <ele>212</ele>
        <time>2022-10-29T14:32:33Z</time>
      </trkpt>
      <trkpt lat="45.42998" lon="0.60471">
        <ele>212</ele>
        <time>2022-10-29T14:32:47Z</time>
      </trkpt>
      <trkpt lat="45.42996" lon="0.6047">
        <ele>211.8</ele>
        <time>2022-10-29T14:33:05Z</time>
      </trkpt>
      <trkpt lat="45.42994" lon="0.60475">
        <ele>212</ele>
        <time>2022-10-29T14:33:23Z</time>
      </trkpt>
      <trkpt lat="45.42991" lon="0.6048">
        <ele>211.6</ele>
        <time>2022-10-29T14:33:39Z</time>
      </trkpt>
      <trkpt lat="45.42994" lon="0.60477">
        <ele>212.2</ele>
        <time>2022-10-29T14:33:47Z</time>
      </trkpt>
      <trkpt lat="45.42995" lon="0.60476">
        <ele>210.6</ele>
        <time>2022-10-29T14:33:56Z</time>
      </trkpt>
      <trkpt lat="45.42995" lon="0.60476">
        <ele>211.6</ele>
        <time>2022-10-29T14:34:01Z</time>
      </trkpt>
      <trkpt lat="45.42995" lon="0.60476">
        <ele>212</ele>
        <time>2022-10-29T14:34:03Z</time>
      </trkpt>
      <trkpt lat="45.42996" lon="0.60475">
        <ele>211</ele>
        <time>2022-10-29T14:34:17Z</time>
      </trkpt>
      <trkpt lat="45.42998" lon="0.60481">
        <ele>210.6</ele>
        <time>2022-10-29T14:34:24Z</time>
      </trkpt>
      <trkpt lat="45.42999" lon="0.60486">
        <ele>210.4</ele>
        <time>2022-10-29T14:34:28Z</time>
      </trkpt>
      <trkpt lat="45.42999" lon="0.60487">
        <ele>210.4</ele>
        <time>2022-10-29T14:34:29Z</time>
      </trkpt>
      <trkpt lat="45.42998" lon="0.6049">
        <ele>210</ele>
        <time>2022-10-29T14:34:32Z</time>
      </trkpt>
      <trkpt lat="45.42998" lon="0.60493">
        <ele>209.4</ele>
        <time>2022-10-29T14:34:36Z</time>
      </trkpt>
      <trkpt lat="45.42998" lon="0.60494">
        <ele>209</ele>
        <time>2022-10-29T14:34:37Z</time>
      </trkpt>
      <trkpt lat="45.42997" lon="0.60496">
        <ele>208.2</ele>
        <time>2022-10-29T14:34:39Z</time>
      </trkpt>
      <trkpt lat="45.42997" lon="0.60499">
        <ele>207.8</ele>
        <time>2022-10-29T14:34:41Z</time>
      </trkpt>
      <trkpt lat="45.42998" lon="0.60501">
        <ele>207.6</ele>
        <time>2022-10-29T14:34:43Z</time>
      </trkpt>
      <trkpt lat="45.42999" lon="0.60503">
        <ele>207.2</ele>
        <time>2022-10-29T14:34:46Z</time>
      </trkpt>
      <trkpt lat="45.42998" lon="0.60506">
        <ele>206.8</ele>
        <time>2022-10-29T14:34:53Z</time>
      </trkpt>
      <trkpt lat="45.43001" lon="0.60513">
        <ele>206.6</ele>
        <time>2022-10-29T14:34:58Z</time>
      </trkpt>
      <trkpt lat="45.43003" lon="0.60515">
        <ele>206.4</ele>
        <time>2022-10-29T14:35:00Z</time>
      </trkpt>
      <trkpt lat="45.43007" lon="0.60517">
        <ele>206.4</ele>
        <time>2022-10-29T14:35:03Z</time>
      </trkpt>
      <trkpt lat="45.43009" lon="0.60519">
        <ele>206.4</ele>
        <time>2022-10-29T14:35:04Z</time>
      </trkpt>
      <trkpt lat="45.43016" lon="0.60525">
        <ele>207</ele>
        <time>2022-10-29T14:35:13Z</time>
      </trkpt>
      <trkpt lat="45.4302" lon="0.60525">
        <ele>207.8</ele>
        <time>2022-10-29T14:35:20Z</time>
      </trkpt>
      <trkpt lat="45.43024" lon="0.60523">
        <ele>208.4</ele>
        <time>2022-10-29T14:35:26Z</time>
      </trkpt>
      <trkpt lat="45.43029" lon="0.60522">
        <ele>209.4</ele>
        <time>2022-10-29T14:35:33Z</time>
      </trkpt>
      <trkpt lat="45.43029" lon="0.60521">
        <ele>209.4</ele>
        <time>2022-10-29T14:35:34Z</time>
      </trkpt>
      <trkpt lat="45.43031" lon="0.6052">
        <ele>210.6</ele>
        <time>2022-10-29T14:35:42Z</time>
      </trkpt>
      <trkpt lat="45.43032" lon="0.60519">
        <ele>211</ele>
        <time>2022-10-29T14:35:46Z</time>
      </trkpt>
      <trkpt lat="45.43032" lon="0.60519">
        <ele>211.6</ele>
        <time>2022-10-29T14:36:01Z</time>
      </trkpt>
      <trkpt lat="45.43032" lon="0.60518">
        <ele>211.6</ele>
        <time>2022-10-29T14:36:03Z</time>
      </trkpt>
      <trkpt lat="45.43035" lon="0.60515">
        <ele>211.6</ele>
        <time>2022-10-29T14:36:17Z</time>
      </trkpt>
      <trkpt lat="45.43036" lon="0.60516">
        <ele>211.8</ele>
        <time>2022-10-29T14:36:34Z</time>
      </trkpt>
      <trkpt lat="45.43035" lon="0.60518">
        <ele>211.6</ele>
        <time>2022-10-29T14:36:53Z</time>
      </trkpt>
      <trkpt lat="45.43034" lon="0.60519">
        <ele>211.6</ele>
        <time>2022-10-29T14:37:10Z</time>
      </trkpt>
      <trkpt lat="45.43037" lon="0.60519">
        <ele>212</ele>
        <time>2022-10-29T14:37:19Z</time>
      </trkpt>
      <trkpt lat="45.4304" lon="0.60518">
        <ele>212.6</ele>
        <time>2022-10-29T14:37:24Z</time>
      </trkpt>
      <trkpt lat="45.43042" lon="0.60518">
        <ele>213.8</ele>
        <time>2022-10-29T14:37:32Z</time>
      </trkpt>
      <trkpt lat="45.43043" lon="0.60519">
        <ele>213.8</ele>
        <time>2022-10-29T14:37:34Z</time>
      </trkpt>
      <trkpt lat="45.43044" lon="0.60522">
        <ele>214.8</ele>
        <time>2022-10-29T14:37:41Z</time>
      </trkpt>
      <trkpt lat="45.43049" lon="0.60523">
        <ele>215.4</ele>
        <time>2022-10-29T14:37:49Z</time>
      </trkpt>
      <trkpt lat="45.4305" lon="0.60524">
        <ele>215.8</ele>
        <time>2022-10-29T14:37:51Z</time>
      </trkpt>
      <trkpt lat="45.43051" lon="0.60525">
        <ele>215.8</ele>
        <time>2022-10-29T14:37:52Z</time>
      </trkpt>
      <trkpt lat="45.43055" lon="0.60527">
        <ele>215.8</ele>
        <time>2022-10-29T14:38:02Z</time>
      </trkpt>
      <trkpt lat="45.43061" lon="0.60532">
        <ele>215.6</ele>
        <time>2022-10-29T14:39:16Z</time>
      </trkpt>
      <trkpt lat="45.43063" lon="0.60538">
        <ele>215.8</ele>
        <time>2022-10-29T14:39:26Z</time>
      </trkpt>
      <trkpt lat="45.43067" lon="0.60531">
        <ele>216.4</ele>
        <time>2022-10-29T14:39:39Z</time>
      </trkpt>
      <trkpt lat="45.43069" lon="0.60529">
        <ele>216.8</ele>
        <time>2022-10-29T14:39:42Z</time>
      </trkpt>
      <trkpt lat="45.43071" lon="0.60524">
        <ele>218</ele>
        <time>2022-10-29T14:39:49Z</time>
      </trkpt>
      <trkpt lat="45.43073" lon="0.60524">
        <ele>218.8</ele>
        <time>2022-10-29T14:39:53Z</time>
      </trkpt>
      <trkpt lat="45.43073" lon="0.60523">
        <ele>219</ele>
        <time>2022-10-29T14:39:55Z</time>
      </trkpt>
      <trkpt lat="45.43079" lon="0.60518">
        <ele>220</ele>
        <time>2022-10-29T14:40:03Z</time>
      </trkpt>
      <trkpt lat="45.43082" lon="0.60518">
        <ele>220.4</ele>
        <time>2022-10-29T14:40:07Z</time>
      </trkpt>
      <trkpt lat="45.43081" lon="0.60517">
        <ele>220.8</ele>
        <time>2022-10-29T14:40:17Z</time>
      </trkpt>
      <trkpt lat="45.4308" lon="0.60518">
        <ele>221</ele>
        <time>2022-10-29T14:40:27Z</time>
      </trkpt>
      <trkpt lat="45.4308" lon="0.60518">
        <ele>221</ele>
        <time>2022-10-29T14:40:28Z</time>
      </trkpt>
      <trkpt lat="45.43085" lon="0.60521">
        <ele>220.4</ele>
        <time>2022-10-29T14:40:39Z</time>
      </trkpt>
      <trkpt lat="45.43087" lon="0.60523">
        <ele>220.4</ele>
        <time>2022-10-29T14:40:42Z</time>
      </trkpt>
      <trkpt lat="45.4309" lon="0.60524">
        <ele>220</ele>
        <time>2022-10-29T14:40:47Z</time>
      </trkpt>
      <trkpt lat="45.43094" lon="0.60528">
        <ele>220</ele>
        <time>2022-10-29T14:40:54Z</time>
      </trkpt>
      <trkpt lat="45.43096" lon="0.6053">
        <ele>220</ele>
        <time>2022-10-29T14:40:57Z</time>
      </trkpt>
      <trkpt lat="45.43103" lon="0.60542">
        <ele>220.2</ele>
        <time>2022-10-29T14:41:08Z</time>
      </trkpt>
      <trkpt lat="45.43106" lon="0.60544">
        <ele>220.4</ele>
        <time>2022-10-29T14:41:10Z</time>
      </trkpt>
      <trkpt lat="45.43115" lon="0.6055">
        <ele>221.2</ele>
        <time>2022-10-29T14:41:19Z</time>
      </trkpt>
      <trkpt lat="45.43116" lon="0.6055">
        <ele>221.6</ele>
        <time>2022-10-29T14:41:20Z</time>
      </trkpt>
      <trkpt lat="45.43121" lon="0.60552">
        <ele>222.4</ele>
        <time>2022-10-29T14:41:26Z</time>
      </trkpt>
      <trkpt lat="45.43129" lon="0.60553">
        <ele>222.2</ele>
        <time>2022-10-29T14:41:35Z</time>
      </trkpt>
      <trkpt lat="45.43131" lon="0.60554">
        <ele>222.4</ele>
        <time>2022-10-29T14:41:39Z</time>
      </trkpt>
      <trkpt lat="45.43133" lon="0.60554">
        <ele>222.6</ele>
        <time>2022-10-29T14:41:41Z</time>
      </trkpt>
      <trkpt lat="45.43136" lon="0.60555">
        <ele>222.8</ele>
        <time>2022-10-29T14:41:46Z</time>
      </trkpt>
      <trkpt lat="45.43138" lon="0.60556">
        <ele>223</ele>
        <time>2022-10-29T14:41:48Z</time>
      </trkpt>
      <trkpt lat="45.4314" lon="0.60556">
        <ele>222.8</ele>
        <time>2022-10-29T14:41:50Z</time>
      </trkpt>
      <trkpt lat="45.43144" lon="0.60557">
        <ele>222.8</ele>
        <time>2022-10-29T14:41:54Z</time>
      </trkpt>
      <trkpt lat="45.43149" lon="0.60557">
        <ele>223.2</ele>
        <time>2022-10-29T14:42:00Z</time>
      </trkpt>
      <trkpt lat="45.43152" lon="0.60558">
        <ele>223.4</ele>
        <time>2022-10-29T14:42:04Z</time>
      </trkpt>
      <trkpt lat="45.4316" lon="0.60554">
        <ele>223.8</ele>
        <time>2022-10-29T14:42:18Z</time>
      </trkpt>
      <trkpt lat="45.43159" lon="0.60549">
        <ele>223.8</ele>
        <time>2022-10-29T14:42:34Z</time>
      </trkpt>
      <trkpt lat="45.43164" lon="0.60554">
        <ele>223.6</ele>
        <time>2022-10-29T14:42:44Z</time>
      </trkpt>
      <trkpt lat="45.43165" lon="0.60555">
        <ele>223.4</ele>
        <time>2022-10-29T14:42:45Z</time>
      </trkpt>
      <trkpt lat="45.4317" lon="0.6056">
        <ele>223.6</ele>
        <time>2022-10-29T14:42:55Z</time>
      </trkpt>
      <trkpt lat="45.4317" lon="0.60568">
        <ele>222.8</ele>
        <time>2022-10-29T14:43:05Z</time>
      </trkpt>
      <trkpt lat="45.43169" lon="0.60572">
        <ele>222.2</ele>
        <time>2022-10-29T14:43:10Z</time>
      </trkpt>
      <trkpt lat="45.43168" lon="0.60575">
        <ele>221.4</ele>
        <time>2022-10-29T14:43:17Z</time>
      </trkpt>
      <trkpt lat="45.43167" lon="0.60575">
        <ele>221</ele>
        <time>2022-10-29T14:43:19Z</time>
      </trkpt>
      <trkpt lat="45.43167" lon="0.60578">
        <ele>219.8</ele>
        <time>2022-10-29T14:43:24Z</time>
      </trkpt>
      <trkpt lat="45.43165" lon="0.60581">
        <ele>219</ele>
        <time>2022-10-29T14:43:28Z</time>
      </trkpt>
      <trkpt lat="45.43165" lon="0.60582">
        <ele>218.8</ele>
        <time>2022-10-29T14:43:30Z</time>
      </trkpt>
      <trkpt lat="45.43166" lon="0.60582">
        <ele>218.4</ele>
        <time>2022-10-29T14:43:41Z</time>
      </trkpt>
      <trkpt lat="45.43166" lon="0.60581">
        <ele>219.2</ele>
        <time>2022-10-29T14:43:59Z</time>
      </trkpt>
      <trkpt lat="45.43165" lon="0.60582">
        <ele>219.2</ele>
        <time>2022-10-29T14:44:19Z</time>
      </trkpt>
      <trkpt lat="45.43162" lon="0.60583">
        <ele>218.8</ele>
        <time>2022-10-29T14:44:31Z</time>
      </trkpt>
      <trkpt lat="45.43158" lon="0.60578">
        <ele>217.6</ele>
        <time>2022-10-29T14:44:40Z</time>
      </trkpt>
      <trkpt lat="45.43158" lon="0.60576">
        <ele>217</ele>
        <time>2022-10-29T14:44:45Z</time>
      </trkpt>
      <trkpt lat="45.43153" lon="0.60578">
        <ele>216.4</ele>
        <time>2022-10-29T14:44:55Z</time>
      </trkpt>
      <trkpt lat="45.43151" lon="0.60577">
        <ele>215.8</ele>
        <time>2022-10-29T14:45:00Z</time>
      </trkpt>
      <trkpt lat="45.43151" lon="0.60578">
        <ele>215.4</ele>
        <time>2022-10-29T14:45:06Z</time>
      </trkpt>
      <trkpt lat="45.4315" lon="0.6058">
        <ele>215.4</ele>
        <time>2022-10-29T14:45:13Z</time>
      </trkpt>
      <trkpt lat="45.43147" lon="0.60588">
        <ele>214.2</ele>
        <time>2022-10-29T14:45:22Z</time>
      </trkpt>
      <trkpt lat="45.43146" lon="0.6059">
        <ele>214.2</ele>
        <time>2022-10-29T14:45:24Z</time>
      </trkpt>
      <trkpt lat="45.43146" lon="0.60591">
        <ele>214</ele>
        <time>2022-10-29T14:45:25Z</time>
      </trkpt>
      <trkpt lat="45.43147" lon="0.60592">
        <ele>213.8</ele>
        <time>2022-10-29T14:45:34Z</time>
      </trkpt>
      <trkpt lat="45.4315" lon="0.60595">
        <ele>213.2</ele>
        <time>2022-10-29T14:45:40Z</time>
      </trkpt>
      <trkpt lat="45.43153" lon="0.60596">
        <ele>213.4</ele>
        <time>2022-10-29T14:45:46Z</time>
      </trkpt>
      <trkpt lat="45.43156" lon="0.606">
        <ele>212</ele>
        <time>2022-10-29T14:46:00Z</time>
      </trkpt>
      <trkpt lat="45.43156" lon="0.606">
        <ele>211.8</ele>
        <time>2022-10-29T14:46:01Z</time>
      </trkpt>
      <trkpt lat="45.43159" lon="0.60602">
        <ele>211</ele>
        <time>2022-10-29T14:46:08Z</time>
      </trkpt>
      <trkpt lat="45.43163" lon="0.60605">
        <ele>210.4</ele>
        <time>2022-10-29T14:46:13Z</time>
      </trkpt>
      <trkpt lat="45.43163" lon="0.60607">
        <ele>210</ele>
        <time>2022-10-29T14:46:16Z</time>
      </trkpt>
      <trkpt lat="45.43167" lon="0.6061">
        <ele>209.2</ele>
        <time>2022-10-29T14:46:21Z</time>
      </trkpt>
      <trkpt lat="45.43168" lon="0.6061">
        <ele>208.8</ele>
        <time>2022-10-29T14:46:23Z</time>
      </trkpt>
      <trkpt lat="45.4317" lon="0.60612">
        <ele>208.4</ele>
        <time>2022-10-29T14:46:28Z</time>
      </trkpt>
      <trkpt lat="45.43175" lon="0.60614">
        <ele>208</ele>
        <time>2022-10-29T14:46:33Z</time>
      </trkpt>
      <trkpt lat="45.43175" lon="0.60614">
        <ele>207.6</ele>
        <time>2022-10-29T14:46:34Z</time>
      </trkpt>
      <trkpt lat="45.43176" lon="0.60615">
        <ele>207.4</ele>
        <time>2022-10-29T14:46:36Z</time>
      </trkpt>
      <trkpt lat="45.43178" lon="0.60616">
        <ele>207</ele>
        <time>2022-10-29T14:46:40Z</time>
      </trkpt>
      <trkpt lat="45.43184" lon="0.60615">
        <ele>206.8</ele>
        <time>2022-10-29T14:46:54Z</time>
      </trkpt>
      <trkpt lat="45.43185" lon="0.60617">
        <ele>206.6</ele>
        <time>2022-10-29T14:47:01Z</time>
      </trkpt>
      <trkpt lat="45.43183" lon="0.6062">
        <ele>206.6</ele>
        <time>2022-10-29T14:47:10Z</time>
      </trkpt>
      <trkpt lat="45.43182" lon="0.6062">
        <ele>206.6</ele>
        <time>2022-10-29T14:47:28Z</time>
      </trkpt>
      <trkpt lat="45.43179" lon="0.6062">
        <ele>206.4</ele>
        <time>2022-10-29T14:47:48Z</time>
      </trkpt>
      <trkpt lat="45.43178" lon="0.60619">
        <ele>206.6</ele>
        <time>2022-10-29T14:48:01Z</time>
      </trkpt>
      <trkpt lat="45.4318" lon="0.60616">
        <ele>206.8</ele>
        <time>2022-10-29T14:48:17Z</time>
      </trkpt>
      <trkpt lat="45.43186" lon="0.60616">
        <ele>206.2</ele>
        <time>2022-10-29T14:48:33Z</time>
      </trkpt>
      <trkpt lat="45.43187" lon="0.60615">
        <ele>206</ele>
        <time>2022-10-29T14:48:34Z</time>
      </trkpt>
      <trkpt lat="45.43192" lon="0.60617">
        <ele>205.8</ele>
        <time>2022-10-29T14:48:38Z</time>
      </trkpt>
      <trkpt lat="45.43203" lon="0.60616">
        <ele>205.6</ele>
        <time>2022-10-29T14:48:47Z</time>
      </trkpt>
      <trkpt lat="45.43217" lon="0.60615">
        <ele>205.6</ele>
        <time>2022-10-29T14:49:02Z</time>
      </trkpt>
      <trkpt lat="45.4323" lon="0.60619">
        <ele>204.8</ele>
        <time>2022-10-29T14:49:17Z</time>
      </trkpt>
      <trkpt lat="45.43231" lon="0.60619">
        <ele>204.6</ele>
        <time>2022-10-29T14:49:18Z</time>
      </trkpt>
      <trkpt lat="45.43236" lon="0.60623">
        <ele>203.4</ele>
        <time>2022-10-29T14:49:25Z</time>
      </trkpt>
      <trkpt lat="45.43238" lon="0.60626">
        <ele>202.4</ele>
        <time>2022-10-29T14:49:30Z</time>
      </trkpt>
      <trkpt lat="45.43238" lon="0.60626">
        <ele>202.2</ele>
        <time>2022-10-29T14:49:31Z</time>
      </trkpt>
      <trkpt lat="45.43239" lon="0.60626">
        <ele>202</ele>
        <time>2022-10-29T14:49:32Z</time>
      </trkpt>
      <trkpt lat="45.43239" lon="0.60628">
        <ele>201.4</ele>
        <time>2022-10-29T14:49:35Z</time>
      </trkpt>
      <trkpt lat="45.4324" lon="0.60629">
        <ele>201.2</ele>
        <time>2022-10-29T14:49:37Z</time>
      </trkpt>
      <trkpt lat="45.43242" lon="0.60632">
        <ele>200.2</ele>
        <time>2022-10-29T14:49:43Z</time>
      </trkpt>
      <trkpt lat="45.43242" lon="0.60633">
        <ele>199.8</ele>
        <time>2022-10-29T14:49:45Z</time>
      </trkpt>
      <trkpt lat="45.43244" lon="0.60634">
        <ele>199</ele>
        <time>2022-10-29T14:49:48Z</time>
      </trkpt>
      <trkpt lat="45.43247" lon="0.60643">
        <ele>198</ele>
        <time>2022-10-29T14:49:57Z</time>
      </trkpt>
      <trkpt lat="45.43244" lon="0.60651">
        <ele>196.8</ele>
        <time>2022-10-29T14:50:03Z</time>
      </trkpt>
      <trkpt lat="45.43243" lon="0.60654">
        <ele>196.2</ele>
        <time>2022-10-29T14:50:06Z</time>
      </trkpt>
      <trkpt lat="45.43242" lon="0.60656">
        <ele>195.8</ele>
        <time>2022-10-29T14:50:09Z</time>
      </trkpt>
      <trkpt lat="45.43242" lon="0.60656">
        <ele>195.8</ele>
        <time>2022-10-29T14:50:10Z</time>
      </trkpt>
      <trkpt lat="45.43247" lon="0.60658">
        <ele>195.6</ele>
        <time>2022-10-29T14:50:25Z</time>
      </trkpt>
      <trkpt lat="45.43247" lon="0.60657">
        <ele>195.6</ele>
        <time>2022-10-29T14:50:43Z</time>
      </trkpt>
      <trkpt lat="45.43247" lon="0.60658">
        <ele>195.2</ele>
        <time>2022-10-29T14:51:00Z</time>
      </trkpt>
      <trkpt lat="45.43243" lon="0.60661">
        <ele>194.8</ele>
        <time>2022-10-29T14:51:12Z</time>
      </trkpt>
      <trkpt lat="45.43241" lon="0.60664">
        <ele>194.4</ele>
        <time>2022-10-29T14:51:14Z</time>
      </trkpt>
      <trkpt lat="45.43239" lon="0.60667">
        <ele>194</ele>
        <time>2022-10-29T14:51:29Z</time>
      </trkpt>
      <trkpt lat="45.43239" lon="0.60669">
        <ele>193.8</ele>
        <time>2022-10-29T14:51:32Z</time>
      </trkpt>
      <trkpt lat="45.43243" lon="0.60673">
        <ele>192.6</ele>
        <time>2022-10-29T14:51:42Z</time>
      </trkpt>
      <trkpt lat="45.43244" lon="0.60673">
        <ele>192.2</ele>
        <time>2022-10-29T14:51:44Z</time>
      </trkpt>
      <trkpt lat="45.43247" lon="0.60675">
        <ele>191.4</ele>
        <time>2022-10-29T14:51:50Z</time>
      </trkpt>
      <trkpt lat="45.43251" lon="0.60679">
        <ele>190.4</ele>
        <time>2022-10-29T14:51:56Z</time>
      </trkpt>
      <trkpt lat="45.43252" lon="0.60682">
        <ele>190</ele>
        <time>2022-10-29T14:51:59Z</time>
      </trkpt>
      <trkpt lat="45.43252" lon="0.60683">
        <ele>190</ele>
        <time>2022-10-29T14:52:00Z</time>
      </trkpt>
      <trkpt lat="45.43252" lon="0.60684">
        <ele>189.6</ele>
        <time>2022-10-29T14:52:01Z</time>
      </trkpt>
      <trkpt lat="45.43252" lon="0.60685">
        <ele>189.2</ele>
        <time>2022-10-29T14:52:02Z</time>
      </trkpt>
      <trkpt lat="45.43253" lon="0.60689">
        <ele>188.2</ele>
        <time>2022-10-29T14:52:06Z</time>
      </trkpt>
      <trkpt lat="45.43255" lon="0.6069">
        <ele>187.8</ele>
        <time>2022-10-29T14:52:08Z</time>
      </trkpt>
      <trkpt lat="45.43256" lon="0.6069">
        <ele>187.6</ele>
        <time>2022-10-29T14:52:10Z</time>
      </trkpt>
      <trkpt lat="45.43258" lon="0.6069">
        <ele>187.4</ele>
        <time>2022-10-29T14:52:12Z</time>
      </trkpt>
      <trkpt lat="45.4326" lon="0.6069">
        <ele>187.2</ele>
        <time>2022-10-29T14:52:14Z</time>
      </trkpt>
      <trkpt lat="45.43261" lon="0.6069">
        <ele>187</ele>
        <time>2022-10-29T14:52:15Z</time>
      </trkpt>
      <trkpt lat="45.43263" lon="0.60691">
        <ele>186</ele>
        <time>2022-10-29T14:52:18Z</time>
      </trkpt>
      <trkpt lat="45.43264" lon="0.60691">
        <ele>185.8</ele>
        <time>2022-10-29T14:52:19Z</time>
      </trkpt>
      <trkpt lat="45.43265" lon="0.60691">
        <ele>185.6</ele>
        <time>2022-10-29T14:52:20Z</time>
      </trkpt>
      <trkpt lat="45.43266" lon="0.60692">
        <ele>185.2</ele>
        <time>2022-10-29T14:52:23Z</time>
      </trkpt>
      <trkpt lat="45.43266" lon="0.60695">
        <ele>184.6</ele>
        <time>2022-10-29T14:52:27Z</time>
      </trkpt>
      <trkpt lat="45.43264" lon="0.60698">
        <ele>184</ele>
        <time>2022-10-29T14:52:29Z</time>
      </trkpt>
      <trkpt lat="45.43262" lon="0.60704">
        <ele>183.4</ele>
        <time>2022-10-29T14:52:33Z</time>
      </trkpt>
      <trkpt lat="45.43261" lon="0.60705">
        <ele>183.2</ele>
        <time>2022-10-29T14:52:34Z</time>
      </trkpt>
      <trkpt lat="45.43261" lon="0.60706">
        <ele>183</ele>
        <time>2022-10-29T14:52:35Z</time>
      </trkpt>
      <trkpt lat="45.43262" lon="0.6071">
        <ele>182.6</ele>
        <time>2022-10-29T14:52:38Z</time>
      </trkpt>
      <trkpt lat="45.43262" lon="0.60712">
        <ele>182.2</ele>
        <time>2022-10-29T14:52:40Z</time>
      </trkpt>
      <trkpt lat="45.43266" lon="0.60716">
        <ele>181.4</ele>
        <time>2022-10-29T14:52:44Z</time>
      </trkpt>
      <trkpt lat="45.4327" lon="0.60718">
        <ele>181.2</ele>
        <time>2022-10-29T14:52:46Z</time>
      </trkpt>
      <trkpt lat="45.43274" lon="0.60718">
        <ele>181</ele>
        <time>2022-10-29T14:52:49Z</time>
      </trkpt>
      <trkpt lat="45.43279" lon="0.60716">
        <ele>180.8</ele>
        <time>2022-10-29T14:52:55Z</time>
      </trkpt>
      <trkpt lat="45.43284" lon="0.60713">
        <ele>181</ele>
        <time>2022-10-29T14:53:02Z</time>
      </trkpt>
      <trkpt lat="45.43284" lon="0.60713">
        <ele>181</ele>
        <time>2022-10-29T14:53:03Z</time>
      </trkpt>
      <trkpt lat="45.43284" lon="0.60711">
        <ele>180.8</ele>
        <time>2022-10-29T14:53:08Z</time>
      </trkpt>
      <trkpt lat="45.43284" lon="0.6071">
        <ele>180.6</ele>
        <time>2022-10-29T14:53:12Z</time>
      </trkpt>
      <trkpt lat="45.43286" lon="0.60708">
        <ele>180.2</ele>
        <time>2022-10-29T14:53:24Z</time>
      </trkpt>
      <trkpt lat="45.43286" lon="0.60709">
        <ele>179.8</ele>
        <time>2022-10-29T14:53:28Z</time>
      </trkpt>
      <trkpt lat="45.43287" lon="0.60718">
        <ele>179.2</ele>
        <time>2022-10-29T14:53:41Z</time>
      </trkpt>
      <trkpt lat="45.43287" lon="0.60718">
        <ele>179</ele>
        <time>2022-10-29T14:53:42Z</time>
      </trkpt>
      <trkpt lat="45.43285" lon="0.60724">
        <ele>178</ele>
        <time>2022-10-29T14:53:47Z</time>
      </trkpt>
      <trkpt lat="45.43283" lon="0.60733">
        <ele>178</ele>
        <time>2022-10-29T14:53:52Z</time>
      </trkpt>
      <trkpt lat="45.43282" lon="0.60734">
        <ele>178</ele>
        <time>2022-10-29T14:53:53Z</time>
      </trkpt>
      <trkpt lat="45.43281" lon="0.60735">
        <ele>178</ele>
        <time>2022-10-29T14:53:54Z</time>
      </trkpt>
      <trkpt lat="45.43281" lon="0.60736">
        <ele>177.8</ele>
        <time>2022-10-29T14:53:55Z</time>
      </trkpt>
      <trkpt lat="45.43276" lon="0.60745">
        <ele>177.4</ele>
        <time>2022-10-29T14:54:02Z</time>
      </trkpt>
      <trkpt lat="45.43272" lon="0.60754">
        <ele>176.8</ele>
        <time>2022-10-29T14:54:09Z</time>
      </trkpt>
      <trkpt lat="45.43266" lon="0.60764">
        <ele>175.8</ele>
        <time>2022-10-29T14:54:17Z</time>
      </trkpt>
      <trkpt lat="45.43261" lon="0.60771">
        <ele>175.4</ele>
        <time>2022-10-29T14:54:24Z</time>
      </trkpt>
      <trkpt lat="45.43256" lon="0.60776">
        <ele>174.6</ele>
        <time>2022-10-29T14:54:29Z</time>
      </trkpt>
      <trkpt lat="45.43246" lon="0.60783">
        <ele>174.2</ele>
        <time>2022-10-29T14:54:39Z</time>
      </trkpt>
      <trkpt lat="45.4323" lon="0.60796">
        <ele>173.8</ele>
        <time>2022-10-29T14:54:54Z</time>
      </trkpt>
      <trkpt lat="45.43229" lon="0.60797">
        <ele>173.6</ele>
        <time>2022-10-29T14:54:55Z</time>
      </trkpt>
      <trkpt lat="45.43213" lon="0.6081">
        <ele>173.2</ele>
        <time>2022-10-29T14:55:09Z</time>
      </trkpt>
      <trkpt lat="45.43212" lon="0.60811">
        <ele>173</ele>
        <time>2022-10-29T14:55:10Z</time>
      </trkpt>
      <trkpt lat="45.43199" lon="0.60814">
        <ele>172.6</ele>
        <time>2022-10-29T14:55:21Z</time>
      </trkpt>
      <trkpt lat="45.43196" lon="0.60815">
        <ele>172.6</ele>
        <time>2022-10-29T14:55:24Z</time>
      </trkpt>
      <trkpt lat="45.43183" lon="0.60818">
        <ele>172</ele>
        <time>2022-10-29T14:55:37Z</time>
      </trkpt>
      <trkpt lat="45.43179" lon="0.60819">
        <ele>171.6</ele>
        <time>2022-10-29T14:55:41Z</time>
      </trkpt>
      <trkpt lat="45.4317" lon="0.60823">
        <ele>170.8</ele>
        <time>2022-10-29T14:55:50Z</time>
      </trkpt>
      <trkpt lat="45.43166" lon="0.60825">
        <ele>170.6</ele>
        <time>2022-10-29T14:55:54Z</time>
      </trkpt>
      <trkpt lat="45.4316" lon="0.60827">
        <ele>170</ele>
        <time>2022-10-29T14:56:04Z</time>
      </trkpt>
      <trkpt lat="45.43156" lon="0.60832">
        <ele>169.4</ele>
        <time>2022-10-29T14:56:13Z</time>
      </trkpt>
      <trkpt lat="45.43154" lon="0.60834">
        <ele>169.2</ele>
        <time>2022-10-29T14:56:17Z</time>
      </trkpt>
      <trkpt lat="45.43151" lon="0.60837">
        <ele>168.8</ele>
        <time>2022-10-29T14:56:21Z</time>
      </trkpt>
      <trkpt lat="45.43148" lon="0.60841">
        <ele>168.4</ele>
        <time>2022-10-29T14:56:25Z</time>
      </trkpt>
      <trkpt lat="45.43142" lon="0.60846">
        <ele>168</ele>
        <time>2022-10-29T14:56:31Z</time>
      </trkpt>
      <trkpt lat="45.43138" lon="0.60852">
        <ele>167.4</ele>
        <time>2022-10-29T14:56:36Z</time>
      </trkpt>
      <trkpt lat="45.43131" lon="0.60862">
        <ele>166.2</ele>
        <time>2022-10-29T14:56:44Z</time>
      </trkpt>
      <trkpt lat="45.4313" lon="0.60864">
        <ele>166</ele>
        <time>2022-10-29T14:56:46Z</time>
      </trkpt>
      <trkpt lat="45.4313" lon="0.60872">
        <ele>165.2</ele>
        <time>2022-10-29T14:56:55Z</time>
      </trkpt>
      <trkpt lat="45.43133" lon="0.60876">
        <ele>165</ele>
        <time>2022-10-29T14:56:59Z</time>
      </trkpt>
      <trkpt lat="45.43136" lon="0.60883">
        <ele>164.2</ele>
        <time>2022-10-29T14:57:04Z</time>
      </trkpt>
      <trkpt lat="45.43142" lon="0.60888">
        <ele>164</ele>
        <time>2022-10-29T14:57:09Z</time>
      </trkpt>
      <trkpt lat="45.43144" lon="0.60891">
        <ele>164</ele>
        <time>2022-10-29T14:57:12Z</time>
      </trkpt>
      <trkpt lat="45.43152" lon="0.60899">
        <ele>163</ele>
        <time>2022-10-29T14:57:25Z</time>
      </trkpt>
      <trkpt lat="45.43154" lon="0.60904">
        <ele>162.6</ele>
        <time>2022-10-29T14:57:30Z</time>
      </trkpt>
      <trkpt lat="45.43158" lon="0.6092">
        <ele>161.8</ele>
        <time>2022-10-29T14:57:42Z</time>
      </trkpt>
      <trkpt lat="45.43158" lon="0.60921">
        <ele>161.8</ele>
        <time>2022-10-29T14:57:43Z</time>
      </trkpt>
      <trkpt lat="45.43158" lon="0.60922">
        <ele>161.8</ele>
        <time>2022-10-29T14:57:44Z</time>
      </trkpt>
      <trkpt lat="45.43164" lon="0.60929">
        <ele>160.8</ele>
        <time>2022-10-29T14:57:50Z</time>
      </trkpt>
      <trkpt lat="45.4317" lon="0.60941">
        <ele>160.4</ele>
        <time>2022-10-29T14:57:59Z</time>
      </trkpt>
      <trkpt lat="45.43175" lon="0.60961">
        <ele>160.2</ele>
        <time>2022-10-29T14:58:14Z</time>
      </trkpt>
      <trkpt lat="45.43177" lon="0.60982">
        <ele>159.8</ele>
        <time>2022-10-29T14:58:28Z</time>
      </trkpt>
      <trkpt lat="45.43178" lon="0.60995">
        <ele>159.6</ele>
        <time>2022-10-29T14:58:38Z</time>
      </trkpt>
      <trkpt lat="45.43176" lon="0.61001">
        <ele>159.4</ele>
        <time>2022-10-29T14:58:42Z</time>
      </trkpt>
      <trkpt lat="45.43174" lon="0.61014">
        <ele>158.6</ele>
        <time>2022-10-29T14:58:51Z</time>
      </trkpt>
      <trkpt lat="45.43169" lon="0.61023">
        <ele>158.4</ele>
        <time>2022-10-29T14:59:00Z</time>
      </trkpt>
      <trkpt lat="45.43171" lon="0.61038">
        <ele>157.6</ele>
        <time>2022-10-29T14:59:09Z</time>
      </trkpt>
      <trkpt lat="45.43172" lon="0.61044">
        <ele>157.4</ele>
        <time>2022-10-29T14:59:13Z</time>
      </trkpt>
      <trkpt lat="45.4317" lon="0.61066">
        <ele>156.6</ele>
        <time>2022-10-29T14:59:27Z</time>
      </trkpt>
      <trkpt lat="45.43169" lon="0.61071">
        <ele>156.6</ele>
        <time>2022-10-29T14:59:30Z</time>
      </trkpt>
      <trkpt lat="45.43167" lon="0.61085">
        <ele>155.6</ele>
        <time>2022-10-29T14:59:41Z</time>
      </trkpt>
      <trkpt lat="45.43167" lon="0.61087">
        <ele>155.6</ele>
        <time>2022-10-29T14:59:42Z</time>
      </trkpt>
      <trkpt lat="45.43169" lon="0.61102">
        <ele>155.2</ele>
        <time>2022-10-29T14:59:55Z</time>
      </trkpt>
      <trkpt lat="45.43176" lon="0.61116">
        <ele>155</ele>
        <time>2022-10-29T15:00:07Z</time>
      </trkpt>
      <trkpt lat="45.43176" lon="0.61117">
        <ele>154.8</ele>
        <time>2022-10-29T15:00:08Z</time>
      </trkpt>
      <trkpt lat="45.43181" lon="0.61125">
        <ele>154.6</ele>
        <time>2022-10-29T15:00:14Z</time>
      </trkpt>
      <trkpt lat="45.43186" lon="0.61134">
        <ele>154.4</ele>
        <time>2022-10-29T15:00:21Z</time>
      </trkpt>
      <trkpt lat="45.43189" lon="0.61142">
        <ele>153.6</ele>
        <time>2022-10-29T15:00:27Z</time>
      </trkpt>
      <trkpt lat="45.43193" lon="0.61153">
        <ele>153</ele>
        <time>2022-10-29T15:00:36Z</time>
      </trkpt>
      <trkpt lat="45.43199" lon="0.61166">
        <ele>152.4</ele>
        <time>2022-10-29T15:00:46Z</time>
      </trkpt>
      <trkpt lat="45.43201" lon="0.6117">
        <ele>152</ele>
        <time>2022-10-29T15:00:49Z</time>
      </trkpt>
      <trkpt lat="45.43207" lon="0.61186">
        <ele>151.2</ele>
        <time>2022-10-29T15:01:02Z</time>
      </trkpt>
      <trkpt lat="45.43207" lon="0.61186">
        <ele>151</ele>
        <time>2022-10-29T15:01:03Z</time>
      </trkpt>
      <trkpt lat="45.43208" lon="0.61195">
        <ele>150.8</ele>
        <time>2022-10-29T15:01:15Z</time>
      </trkpt>
      <trkpt lat="45.43208" lon="0.61199">
        <ele>150.4</ele>
        <time>2022-10-29T15:01:18Z</time>
      </trkpt>
      <trkpt lat="45.43208" lon="0.61205">
        <ele>150.2</ele>
        <time>2022-10-29T15:01:22Z</time>
      </trkpt>
      <trkpt lat="45.43206" lon="0.61219">
        <ele>149.8</ele>
        <time>2022-10-29T15:01:33Z</time>
      </trkpt>
      <trkpt lat="45.432" lon="0.61226">
        <ele>149.6</ele>
        <time>2022-10-29T15:01:42Z</time>
      </trkpt>
      <trkpt lat="45.43194" lon="0.61229">
        <ele>149.8</ele>
        <time>2022-10-29T15:01:48Z</time>
      </trkpt>
    </trkseg>
  </trk>
</gpx>